createdAt,value
2019-03-13T00:02:36.271Z,77.70
2019-03-13T00:05:09.449Z,77.40
2019-03-13T00:07:39.787Z,76.90
2019-03-13T00:10:11.022Z,76.30
2019-03-13T00:12:41.441Z,75.80
2019-03-13T00:15:12.064Z,75.20
2019-03-13T00:17:42.423Z,74.90
2019-03-13T00:20:13.141Z,74.30
2019-03-13T00:22:43.462Z,73.40
2019-03-13T00:25:14.155Z,74.30
2019-03-13T00:27:45.505Z,75.40
2019-03-13T00:30:16.144Z,75.80
2019-03-13T00:32:46.533Z,74.80
2019-03-13T00:35:17.236Z,74.90
2019-03-13T00:37:47.997Z,75.30
2019-03-13T00:40:18.578Z,75.00
2019-03-13T00:42:49.065Z,73.50
2019-03-13T00:45:19.428Z,73.40
2019-03-13T00:47:49.795Z,73.40
2019-03-13T00:50:24.073Z,72.40
2019-03-13T00:52:55.628Z,72.30
2019-03-13T00:55:25.926Z,72.20
2019-03-13T00:57:56.296Z,71.80
2019-03-13T01:00:51.563Z,71.40
2019-03-13T01:03:56.154Z,71.00
2019-03-13T01:06:29.307Z,70.90
2019-03-13T01:08:59.668Z,73.30
2019-03-13T01:11:30.619Z,77.20
2019-03-13T01:14:00.963Z,78.00
2019-03-13T01:16:31.252Z,80.20
2019-03-13T01:19:01.568Z,80.80
2019-03-13T01:21:31.950Z,79.30
2019-03-13T01:24:02.282Z,80.60
2019-03-13T01:26:32.571Z,81.30
2019-03-13T01:29:02.883Z,81.30
2019-03-13T01:31:51.203Z,81.20
2019-03-13T01:34:34.660Z,80.70
2019-03-13T01:37:04.989Z,80.00
2019-03-13T01:39:35.357Z,80.10
2019-03-13T01:42:05.781Z,79.30
2019-03-13T01:44:36.084Z,78.30
2019-03-13T01:47:06.410Z,80.00
2019-03-13T01:49:36.695Z,79.40
2019-03-13T01:52:07.024Z,79.40
2019-03-13T01:54:37.307Z,79.20
2019-03-13T01:57:07.628Z,78.50
2019-03-13T01:59:37.928Z,78.60
2019-03-13T02:02:08.250Z,78.20
2019-03-13T02:04:38.620Z,78.10
2019-03-13T02:07:08.964Z,78.30
2019-03-13T02:09:39.251Z,79.40
2019-03-13T02:12:09.614Z,78.20
2019-03-13T02:14:39.924Z,77.90
2019-03-13T02:17:10.251Z,78.00
2019-03-13T02:19:40.555Z,77.40
2019-03-13T02:22:11.166Z,77.10
2019-03-13T02:24:41.458Z,77.20
2019-03-13T02:27:11.898Z,78.80
2019-03-13T02:29:42.172Z,80.70
2019-03-13T02:32:12.758Z,83.40
2019-03-13T02:34:43.075Z,86.00
2019-03-13T02:37:13.757Z,86.60
2019-03-13T02:39:44.123Z,86.40
2019-03-13T02:42:14.541Z,86.80
2019-03-13T02:44:44.934Z,86.20
2019-03-13T02:47:18.601Z,87.80
2019-03-13T02:49:47.813Z,85.80
2019-03-13T02:52:18.334Z,85.70
2019-03-13T02:54:49.031Z,84.80
2019-03-13T02:57:19.388Z,84.30
2019-03-13T02:59:51.104Z,83.40
2019-03-13T03:02:46.168Z,83.20
2019-03-13T03:05:17.582Z,82.80
2019-03-13T03:07:47.927Z,82.70
2019-03-13T03:10:18.320Z,82.40
2019-03-13T03:12:48.644Z,82.10
2019-03-13T03:15:21.312Z,81.90
2019-03-13T03:17:51.605Z,82.10
2019-03-13T03:20:22.008Z,81.40
2019-03-13T03:22:52.703Z,81.80
2019-03-13T03:25:23.063Z,82.80
2019-03-13T03:27:53.424Z,82.40
2019-03-13T03:30:24.300Z,83.00
2019-03-13T03:32:54.701Z,82.50
2019-03-13T03:35:25.113Z,82.40
2019-03-13T03:37:55.645Z,81.90
2019-03-13T03:40:25.996Z,81.70
2019-03-13T03:42:56.347Z,81.60
2019-03-13T03:45:26.709Z,81.30
2019-03-13T03:47:56.986Z,80.90
2019-03-13T03:50:27.303Z,81.00
2019-03-13T03:53:01.608Z,80.60
2019-03-13T03:55:32.043Z,80.20
2019-03-13T03:58:02.420Z,79.30
2019-03-13T04:00:32.764Z,78.90
2019-03-13T04:03:03.041Z,78.60
2019-03-13T04:05:33.561Z,77.90
2019-03-13T04:08:03.870Z,76.80
2019-03-13T04:10:34.199Z,76.00
2019-03-13T04:13:04.475Z,75.50
2019-03-13T04:15:34.899Z,75.00
2019-03-13T04:18:05.382Z,74.60
2019-03-13T04:20:35.695Z,74.50
2019-03-13T04:23:06.070Z,74.40
2019-03-13T04:25:37.227Z,74.40
2019-03-13T04:28:08.125Z,74.30
2019-03-13T04:30:38.442Z,74.00
2019-03-13T04:33:08.782Z,74.70
2019-03-13T04:35:39.130Z,75.00
2019-03-13T04:38:09.534Z,76.30
2019-03-13T04:40:39.855Z,76.80
2019-03-13T04:43:10.138Z,77.90
2019-03-13T04:45:40.451Z,78.90
2019-03-13T04:48:10.766Z,78.20
2019-03-13T04:50:41.099Z,78.40
2019-03-13T04:53:11.494Z,78.90
2019-03-13T04:55:41.838Z,78.60
2019-03-13T04:58:12.117Z,78.00
2019-03-13T05:00:42.460Z,77.70
2019-03-13T05:03:12.934Z,76.80
2019-03-13T05:05:47.614Z,77.20
2019-03-13T05:08:45.018Z,78.80
2019-03-13T05:11:08.659Z,81.60
2019-03-13T05:13:38.966Z,83.30
2019-03-13T05:16:09.358Z,84.60
2019-03-13T05:18:39.881Z,87.30
2019-03-13T05:21:10.430Z,90.30
2019-03-13T05:23:40.807Z,90.20
2019-03-13T05:26:11.209Z,90.30
2019-03-13T05:28:41.582Z,90.20
2019-03-13T05:31:12.097Z,90.90
2019-03-13T05:33:42.484Z,90.60
2019-03-13T05:36:16.313Z,90.40
2019-03-13T05:38:45.950Z,90.20
2019-03-13T05:41:16.439Z,90.10
2019-03-13T05:43:46.797Z,90.00
2019-03-13T05:46:17.170Z,90.30
2019-03-13T05:48:47.629Z,89.90
2019-03-13T05:51:18.300Z,90.00
2019-03-13T05:53:48.692Z,88.90
2019-03-13T05:56:19.086Z,88.50
2019-03-13T05:58:49.506Z,87.60
2019-03-13T06:01:19.830Z,86.90
2019-03-13T06:03:50.190Z,86.30
2019-03-13T06:06:20.516Z,85.50
2019-03-13T06:08:50.820Z,85.40
2019-03-13T06:11:21.258Z,85.20
2019-03-13T06:13:51.566Z,85.00
2019-03-13T06:16:21.892Z,85.30
2019-03-13T06:18:53.118Z,85.40
2019-03-13T06:21:23.540Z,85.50
2019-03-13T06:23:53.844Z,83.20
2019-03-13T06:26:24.192Z,82.50
2019-03-13T06:28:54.507Z,81.30
2019-03-13T06:31:24.834Z,80.40
2019-03-13T06:33:55.119Z,80.20
2019-03-13T06:36:25.454Z,79.50
2019-03-13T06:38:55.732Z,79.20
2019-03-13T06:41:26.064Z,79.00
2019-03-13T06:43:56.424Z,79.00
2019-03-13T06:46:26.746Z,78.80
2019-03-13T06:48:57.052Z,79.00
2019-03-13T06:51:27.362Z,79.00
2019-03-13T06:53:57.666Z,79.10
2019-03-13T06:56:28.017Z,79.60
2019-03-13T06:59:09.272Z,79.90
2019-03-13T07:01:48.997Z,79.30
2019-03-13T07:04:53.339Z,79.20
2019-03-13T07:07:51.659Z,78.10
2019-03-13T07:10:37.658Z,77.40
2019-03-13T07:13:15.269Z,76.50
2019-03-13T07:16:07.283Z,76.10
2019-03-13T07:18:50.257Z,76.00
2019-03-13T07:21:43.921Z,75.70
2019-03-13T07:24:24.760Z,75.70
2019-03-13T07:27:00.874Z,75.40
2019-03-13T07:29:50.073Z,74.80
2019-03-13T07:32:45.137Z,74.60
2019-03-13T07:35:46.728Z,73.50
2019-03-13T07:38:36.087Z,72.80
2019-03-13T07:41:14.855Z,72.50
2019-03-13T07:44:14.640Z,71.60
2019-03-13T07:47:13.162Z,71.10
2019-03-13T07:50:02.887Z,70.40
2019-03-13T07:52:55.264Z,70.00
2019-03-13T07:55:33.507Z,70.00
2019-03-13T07:58:34.928Z,70.20
2019-03-13T08:01:23.120Z,70.30
2019-03-13T08:04:23.776Z,70.30
2019-03-13T08:07:04.330Z,69.90
2019-03-13T08:09:52.238Z,69.90
2019-03-13T08:12:40.455Z,69.40
2019-03-13T08:15:46.415Z,69.50
2019-03-13T08:18:27.782Z,69.30
2019-03-13T08:21:15.749Z,69.20
2019-03-13T08:23:53.542Z,68.20
2019-03-13T08:26:48.793Z,67.80
2019-03-13T08:29:41.170Z,67.40
2019-03-13T08:32:30.418Z,67.10
2019-03-13T08:35:18.706Z,67.00
2019-03-13T08:38:02.982Z,66.60
2019-03-13T08:40:55.240Z,65.10
2019-03-13T08:43:33.766Z,65.60
2019-03-13T08:46:18.533Z,65.80
2019-03-13T08:48:57.099Z,65.90
2019-03-13T08:51:52.477Z,65.40
2019-03-13T08:54:41.850Z,64.90
2019-03-13T08:57:43.453Z,65.40
2019-03-13T09:00:32.012Z,65.70
2019-03-13T09:03:21.332Z,66.90
2019-03-13T09:06:10.594Z,67.60
2019-03-13T09:09:02.900Z,67.60
2019-03-13T09:12:05.797Z,67.40
2019-03-13T09:14:55.085Z,67.80
2019-03-13T09:18:02.856Z,68.10
2019-03-13T09:20:52.107Z,65.80
2019-03-13T09:23:27.697Z,66.10
2019-03-13T09:26:17.142Z,63.70
2019-03-13T09:29:05.393Z,62.00
2019-03-13T09:31:55.563Z,58.60
2019-03-13T09:34:38.114Z,58.20
2019-03-13T09:37:26.377Z,58.50
2019-03-13T09:40:14.281Z,57.40
2019-03-13T09:43:03.632Z,58.40
2019-03-13T09:45:41.596Z,57.20
2019-03-13T09:48:31.092Z,56.60
2019-03-13T09:51:19.222Z,57.10
2019-03-13T09:54:17.636Z,56.40
2019-03-13T09:57:09.929Z,55.70
2019-03-13T09:59:50.379Z,56.30
2019-03-13T10:02:42.594Z,54.50
2019-03-13T10:05:31.298Z,53.50
2019-03-13T10:08:11.791Z,53.50
2019-03-13T10:11:04.044Z,53.60
2019-03-13T10:14:05.406Z,52.60
2019-03-13T10:16:53.794Z,52.00
2019-03-13T10:19:34.273Z,52.10
2019-03-13T10:22:22.279Z,51.90
2019-03-13T10:25:11.544Z,51.30
2019-03-13T10:27:57.346Z,51.20
2019-03-13T10:30:46.626Z,51.50
2019-03-13T10:33:30.684Z,51.90
2019-03-13T10:36:20.574Z,51.60
2019-03-13T10:39:08.554Z,52.50
2019-03-13T10:41:51.237Z,52.50
2019-03-13T10:44:58.947Z,51.80
2019-03-13T10:47:48.189Z,51.70
2019-03-13T10:50:43.398Z,50.00
2019-03-13T10:53:44.769Z,51.10
2019-03-13T10:56:39.863Z,48.70
2019-03-13T10:59:37.988Z,48.00
2019-03-13T11:02:30.037Z,48.40
2019-03-13T11:05:22.157Z,48.50
2019-03-13T11:08:02.362Z,48.80
2019-03-13T11:11:04.716Z,48.10
2019-03-13T11:14:15.416Z,47.70
2019-03-13T11:16:53.091Z,48.30
2019-03-13T11:19:35.243Z,48.40
2019-03-13T11:22:21.011Z,47.10
2019-03-13T11:25:13.197Z,46.40
2019-03-13T11:27:51.926Z,46.00
2019-03-13T11:30:42.705Z,46.30
2019-03-13T11:33:30.636Z,45.80
2019-03-13T11:36:19.390Z,45.60
2019-03-13T11:39:04.743Z,46.30
2019-03-13T11:41:53.220Z,46.60
2019-03-13T11:44:45.555Z,47.30
2019-03-13T11:47:27.949Z,52.90
2019-03-13T11:50:26.250Z,56.80
2019-03-13T11:53:21.191Z,64.30
2019-03-13T11:56:02.184Z,72.20
2019-03-13T11:58:54.218Z,82.10
2019-03-13T12:01:46.047Z,86.50
2019-03-13T12:04:33.089Z,92.30
2019-03-13T12:07:22.513Z,93.70
2019-03-13T12:10:15.554Z,93.30
2019-03-13T12:12:54.113Z,92.80
2019-03-13T12:15:34.750Z,84.60
2019-03-13T12:18:10.326Z,84.10
2019-03-13T12:21:02.695Z,80.00
2019-03-13T12:23:57.930Z,75.90
2019-03-13T12:26:47.205Z,70.90
2019-03-13T12:29:50.254Z,63.90
2019-03-13T12:32:42.379Z,62.10
2019-03-13T12:35:37.487Z,62.40
2019-03-13T12:38:24.361Z,64.80
2019-03-13T12:41:19.441Z,63.80
2019-03-13T12:44:08.710Z,60.80
2019-03-13T12:46:53.777Z,59.50
2019-03-13T12:49:32.757Z,61.40
2019-03-13T12:52:28.181Z,61.00
2019-03-13T12:55:26.274Z,58.30
2019-03-13T12:58:27.640Z,57.20
2019-03-13T13:01:16.939Z,54.00
2019-03-13T13:03:54.906Z,50.10
2019-03-13T13:06:48.313Z,49.80
2019-03-13T13:09:40.359Z,46.20
2019-03-13T13:12:33.060Z,43.80
2019-03-13T13:15:28.164Z,43.70
2019-03-13T13:18:26.721Z,44.10
2019-03-13T13:20:57.058Z,44.10
2019-03-13T13:23:27.495Z,44.60
2019-03-13T13:25:57.774Z,45.00
2019-03-13T13:28:28.082Z,45.20
2019-03-13T13:30:58.430Z,45.40
2019-03-13T13:33:28.754Z,45.80
2019-03-13T13:35:59.085Z,44.50
2019-03-13T13:38:29.398Z,43.30
2019-03-13T13:40:59.745Z,44.60
2019-03-13T13:43:30.391Z,44.60
2019-03-13T13:46:10.174Z,45.60
2019-03-13T13:48:40.493Z,46.20
2019-03-13T13:51:10.850Z,47.60
2019-03-13T13:53:42.558Z,46.50
2019-03-13T13:56:12.980Z,44.60
2019-03-13T13:58:43.276Z,44.30
2019-03-13T14:01:13.607Z,44.60
2019-03-13T14:03:43.900Z,45.40
2019-03-13T14:06:14.299Z,45.90
2019-03-13T14:08:44.608Z,45.60
2019-03-13T14:11:14.934Z,46.10
2019-03-13T14:13:45.225Z,46.60
2019-03-13T14:16:15.566Z,46.20
2019-03-13T14:18:45.911Z,46.30
2019-03-13T14:21:16.305Z,46.30
2019-03-13T14:23:46.567Z,46.10
2019-03-13T14:26:16.888Z,46.60
2019-03-13T14:28:47.259Z,46.20
2019-03-13T14:31:17.701Z,46.70
2019-03-13T14:33:48.464Z,46.80
2019-03-13T14:36:21.803Z,46.60
2019-03-13T14:38:52.322Z,46.70
2019-03-13T14:41:22.648Z,46.80
2019-03-13T14:43:53.111Z,47.20
2019-03-13T14:46:23.435Z,47.20
2019-03-13T14:48:55.018Z,47.50
2019-03-13T14:51:25.346Z,47.10
2019-03-13T14:53:55.700Z,47.10
2019-03-13T14:56:26.018Z,47.40
2019-03-13T14:58:56.510Z,47.00
2019-03-13T15:01:26.913Z,46.10
2019-03-13T15:03:57.232Z,46.00
2019-03-13T15:06:27.540Z,44.90
2019-03-13T15:08:57.882Z,46.30
2019-03-13T15:11:28.186Z,45.90
2019-03-13T15:13:58.882Z,46.30
2019-03-13T15:16:29.191Z,46.90
2019-03-13T15:18:59.549Z,46.60
2019-03-13T15:21:29.854Z,46.10
2019-03-13T15:24:00.282Z,47.10
2019-03-13T15:26:31.099Z,47.00
2019-03-13T15:29:01.487Z,47.00
2019-03-13T15:31:31.846Z,47.10
2019-03-13T15:34:02.197Z,47.30
2019-03-13T15:36:32.527Z,47.20
2019-03-13T15:39:02.884Z,48.30
2019-03-13T15:41:34.877Z,48.40
2019-03-13T15:44:07.281Z,48.80
2019-03-13T15:46:37.585Z,49.30
2019-03-13T15:49:07.930Z,50.00
2019-03-13T15:51:38.989Z,50.00
2019-03-13T15:54:10.492Z,50.50
2019-03-13T15:56:40.794Z,50.10
2019-03-13T15:59:11.134Z,49.90
2019-03-13T16:01:42.618Z,49.70
2019-03-13T16:04:12.968Z,49.40
2019-03-13T16:06:43.258Z,49.50
2019-03-13T16:09:13.604Z,49.10
2019-03-13T16:11:45.090Z,47.40
2019-03-13T16:14:15.427Z,45.70
2019-03-13T16:16:45.825Z,43.90
2019-03-13T16:19:16.322Z,42.60
2019-03-13T16:21:47.802Z,42.00
2019-03-13T16:24:18.146Z,42.10
2019-03-13T16:26:48.463Z,41.50
2019-03-13T16:29:20.950Z,42.00
2019-03-13T16:31:51.281Z,41.70
2019-03-13T16:34:21.777Z,42.30
2019-03-13T16:36:52.173Z,43.60
2019-03-13T16:39:22.504Z,45.50
2019-03-13T16:41:52.826Z,46.50
2019-03-13T16:44:23.193Z,47.70
2019-03-13T16:46:53.818Z,47.70
2019-03-13T16:49:24.216Z,47.90
2019-03-13T16:51:54.505Z,48.40
2019-03-13T16:54:24.939Z,48.70
2019-03-13T16:56:55.339Z,49.60
2019-03-13T16:59:25.698Z,50.40
2019-03-13T17:01:56.006Z,51.30
2019-03-13T17:04:26.537Z,51.60
2019-03-13T17:06:56.919Z,52.00
2019-03-13T17:09:27.306Z,52.40
2019-03-13T17:11:57.676Z,52.80
2019-03-13T17:14:28.070Z,52.90
2019-03-13T17:16:59.357Z,52.90
2019-03-13T17:19:29.739Z,53.00
2019-03-13T17:22:00.051Z,53.00
2019-03-13T17:24:30.415Z,53.20
2019-03-13T17:27:00.745Z,53.00
2019-03-13T17:29:31.921Z,53.00
2019-03-13T17:32:03.313Z,53.20
2019-03-13T17:34:33.745Z,53.00
2019-03-13T17:37:04.105Z,53.20
2019-03-13T17:39:34.510Z,53.20
2019-03-13T17:42:04.858Z,53.20
2019-03-13T17:44:35.182Z,53.40
2019-03-13T17:47:05.493Z,53.40
2019-03-13T17:49:38.001Z,53.30
2019-03-13T17:52:08.303Z,53.40
2019-03-13T17:54:38.645Z,53.40
2019-03-13T17:57:09.029Z,53.70
2019-03-13T17:59:39.337Z,55.50
2019-03-13T18:02:09.658Z,55.00
2019-03-13T18:04:39.987Z,55.10
2019-03-13T18:07:10.296Z,56.80
2019-03-13T18:09:40.902Z,57.20
2019-03-13T18:12:11.220Z,57.80
2019-03-13T18:14:41.561Z,58.60
2019-03-13T18:17:11.945Z,59.60
2019-03-13T18:19:42.339Z,61.00
2019-03-13T18:22:13.681Z,61.80
2019-03-13T18:24:44.210Z,62.80
2019-03-13T18:27:14.996Z,63.60
2019-03-13T18:29:46.456Z,63.70
2019-03-13T18:32:16.760Z,65.00
2019-03-13T18:34:48.199Z,65.00
2019-03-13T18:37:21.135Z,65.50
2019-03-13T18:39:57.912Z,66.20
2019-03-13T18:42:30.628Z,66.80
2019-03-13T18:45:10.815Z,68.80
2019-03-13T18:47:48.386Z,71.10
2019-03-13T18:50:22.273Z,71.60
2019-03-13T18:52:56.155Z,72.40
2019-03-13T18:55:29.848Z,72.80
2019-03-13T18:58:05.910Z,74.40
2019-03-13T19:00:39.987Z,73.80
2019-03-13T19:03:18.025Z,74.30
2019-03-13T19:05:48.525Z,74.30
2019-03-13T19:08:18.949Z,74.10
2019-03-13T19:10:51.483Z,74.10
2019-03-13T19:13:21.986Z,76.50
2019-03-13T19:16:33.019Z,79.70
2019-03-13T19:19:16.234Z,80.60
2019-03-13T19:21:27.031Z,80.90
2019-03-13T19:24:02.314Z,81.90
2019-03-13T19:26:37.275Z,81.60
2019-03-13T19:29:10.094Z,82.20
2019-03-13T19:31:47.426Z,82.30
2019-03-13T19:34:22.304Z,82.40
2019-03-13T19:37:00.996Z,81.90
2019-03-13T19:39:41.064Z,82.00
2019-03-13T19:42:17.463Z,81.50
2019-03-13T19:44:49.202Z,81.00
2019-03-13T19:47:20.298Z,81.20
2019-03-13T19:49:56.967Z,80.70
2019-03-13T19:52:27.313Z,80.90
2019-03-13T19:55:12.501Z,80.40
2019-03-13T19:57:52.501Z,80.50
2019-03-13T20:00:33.469Z,80.30
2019-03-13T20:03:07.183Z,80.20
2019-03-13T20:05:45.974Z,79.50
2019-03-13T20:08:17.285Z,79.70
2019-03-13T20:10:51.713Z,79.70
2019-03-13T20:13:33.300Z,78.90
2019-03-13T20:16:06.424Z,79.30
2019-03-13T20:18:57.073Z,79.60
2019-03-13T20:21:34.463Z,79.50
2019-03-13T20:24:08.775Z,78.90
2019-03-13T20:26:40.835Z,78.70
2019-03-13T20:29:11.188Z,78.60
2019-03-13T20:31:42.379Z,78.70
2019-03-13T20:34:12.776Z,78.40
2019-03-13T20:36:44.411Z,78.30
2019-03-13T20:39:14.817Z,78.30
2019-03-13T20:41:45.218Z,78.00
2019-03-13T20:44:15.671Z,78.70
2019-03-13T20:46:46.062Z,78.80
2019-03-13T20:49:17.266Z,79.30
2019-03-13T20:51:48.212Z,79.30
2019-03-13T20:54:18.513Z,80.10
2019-03-13T20:56:48.911Z,80.50
2019-03-13T20:59:22.214Z,80.20
2019-03-13T21:01:52.582Z,79.80
2019-03-13T21:04:22.981Z,80.00
2019-03-13T21:06:54.363Z,80.30
2019-03-13T21:09:24.650Z,79.80
2019-03-13T21:11:55.047Z,80.00
2019-03-13T21:14:25.518Z,80.00
2019-03-13T21:16:55.917Z,79.70
2019-03-13T21:19:28.105Z,79.60
2019-03-13T21:21:58.509Z,79.40
2019-03-13T21:24:28.829Z,79.60
2019-03-13T21:26:59.323Z,79.50
2019-03-13T21:29:31.131Z,80.00
2019-03-13T21:32:01.497Z,79.50
2019-03-13T21:34:31.913Z,79.90
2019-03-13T21:37:02.293Z,79.50
2019-03-13T21:39:32.705Z,79.40
2019-03-13T21:42:02.934Z,79.80
2019-03-13T21:44:34.256Z,80.40
2019-03-13T21:47:04.721Z,80.40
2019-03-13T21:49:35.065Z,80.60
2019-03-13T21:52:06.731Z,80.60
2019-03-13T21:54:37.101Z,80.30
2019-03-13T21:57:07.394Z,80.40
2019-03-13T21:59:37.828Z,80.60
2019-03-13T22:02:09.200Z,80.50
2019-03-13T22:04:39.618Z,81.30
2019-03-13T22:07:09.925Z,83.30
2019-03-13T22:09:40.312Z,82.70
2019-03-13T22:12:10.821Z,84.10
2019-03-13T22:14:41.220Z,85.10
2019-03-13T22:17:11.576Z,86.40
2019-03-13T22:19:41.906Z,87.90
2019-03-13T22:22:12.465Z,88.80
2019-03-13T22:24:42.860Z,88.50
2019-03-13T22:27:14.888Z,89.50
2019-03-13T22:29:45.182Z,88.90
2019-03-13T22:32:15.546Z,89.30
2019-03-13T22:34:45.902Z,88.80
2019-03-13T22:37:16.436Z,89.00
2019-03-13T22:39:47.133Z,89.00
2019-03-13T22:42:17.428Z,90.20
2019-03-13T22:44:48.032Z,89.80
2019-03-13T22:47:18.620Z,89.00
2019-03-13T22:49:50.090Z,88.60
2019-03-13T22:52:20.400Z,90.10
2019-03-13T22:54:50.811Z,91.60
2019-03-13T22:57:21.195Z,92.50
2019-03-13T22:59:51.550Z,93.20
2019-03-13T23:02:21.905Z,93.80
2019-03-13T23:04:53.702Z,94.10
2019-03-13T23:07:24.009Z,93.70
2019-03-13T23:09:56.424Z,94.00
2019-03-13T23:12:26.447Z,93.50
2019-03-13T23:14:57.865Z,93.30
2019-03-13T23:17:28.217Z,93.60
2019-03-13T23:19:58.727Z,93.20
2019-03-13T23:22:29.065Z,93.50
2019-03-13T23:24:59.362Z,93.60
2019-03-13T23:27:29.721Z,93.90
2019-03-13T23:30:00.022Z,93.50
2019-03-13T23:32:31.363Z,93.50
2019-03-13T23:35:05.838Z,94.60
2019-03-13T23:37:37.287Z,94.00
2019-03-13T23:40:08.774Z,94.00
2019-03-13T23:42:39.134Z,94.80
2019-03-13T23:45:09.585Z,95.50
2019-03-13T23:47:39.881Z,96.20
2019-03-13T23:50:10.226Z,95.70
2019-03-13T23:52:40.573Z,95.40
2019-03-13T23:55:11.330Z,96.40
2019-03-13T23:57:41.602Z,95.90
